»·PEaware :: N737EG KAJO-KVCV

N737EG :: KAJO-KVCV

FLIGHT INFORMATION

Flight Status: Arrived
Operator: Privately registered:
United States
More flights under this callsign
Pilot: Daniel B. (28719)
Aircraft: CESSNA 172 SKYHAWK
(C172)
More flights by this aircraft type
Origin: KAJO Corona Mun
United States
Destination: KVCV Socal Logistics
United States
More flights between these airports :: More routes between these airports
Route: PDZ V442 APLES
File this flight plan on PilotEdge
Remarks:
Altitude:
(Current/Filed)
11,000ft
Speed:
(Current/Filed)
115kts
Departed: 13-Dec-20 11:47 AM
Arrived: 13-Dec-20 01:04 PM
Distance/Time
Traveled:
44nm/1:17
Distance/Time
To Go:
Arrived

Flight Plot

Page will automatically refresh every two minutes.


Map Options




Map Legend


Flown Route
Filed Route
Departure Airport
Arrival Airport
Navaid (VOR, NDB)
Fix

Horizontal Profiles

Position Reports

Time Latitude Longitude Heading Altitude Ground
Speed
13-Dec-20 11:24 33.896978 -117.607296 180 537ft 0kts
13-Dec-20 11:25 33.896978 -117.607296 180 537ft 0kts
13-Dec-20 11:26 33.896978 -117.607296 180 537ft 0kts
13-Dec-20 11:27 33.896978 -117.607296 180 537ft 0kts
13-Dec-20 11:28 33.896978 -117.607296 179 537ft 0kts
13-Dec-20 11:29 33.896977 -117.607296 179 537ft 0kts
13-Dec-20 11:30 33.896977 -117.607296 179 537ft 0kts
13-Dec-20 11:31 33.896977 -117.607296 179 537ft 0kts
13-Dec-20 11:32 33.896977 -117.607296 179 537ft 0kts
13-Dec-20 11:33 33.896977 -117.607296 179 537ft 0kts
13-Dec-20 11:34 33.896977 -117.607296 179 537ft 0kts
13-Dec-20 11:35 33.896977 -117.607296 179 537ft 0kts
13-Dec-20 11:36 33.896977 -117.607296 179 537ft 0kts
13-Dec-20 11:37 33.896977 -117.607296 179 537ft 0kts
13-Dec-20 11:38 33.896977 -117.607268 25 537ft 0kts
13-Dec-20 11:39 33.897087 -117.607392 301 537ft 0kts
13-Dec-20 11:40 33.897193 -117.607521 352 537ft 0kts
13-Dec-20 11:41 33.897193 -117.607521 352 537ft 0kts
13-Dec-20 11:42 33.897193 -117.607521 352 537ft 0kts
13-Dec-20 11:43 33.897193 -117.607521 352 537ft 0kts
13-Dec-20 11:44 33.897193 -117.607521 352 537ft 0kts
13-Dec-20 11:45 33.897205 -117.607523 351 537ft 0kts
13-Dec-20 11:46 33.899964 -117.594479 71 896ft 74kts
13-Dec-20 11:47 33.909429 -117.570037 70 1690ft 88kts
13-Dec-20 11:48 33.913214 -117.544563 94 2613ft 74kts
13-Dec-20 11:49 33.925658 -117.524870 43 3376ft 84kts
13-Dec-20 11:50 33.943939 -117.515424 313 4003ft 84kts
13-Dec-20 11:51 33.934246 -117.527120 182 4599ft 71kts
13-Dec-20 11:52 33.916005 -117.532429 229 5303ft 66kts
13-Dec-20 11:53 33.931300 -117.530783 42 5874ft 95kts
13-Dec-20 11:54 33.952714 -117.509384 54 6103ft 117kts
13-Dec-20 11:55 33.930857 -117.511307 226 6003ft 121kts
13-Dec-20 11:56 33.914755 -117.538354 259 5969ft 111kts
13-Dec-20 11:57 33.935506 -117.534363 47 6559ft 104kts
13-Dec-20 11:58 33.952105 -117.512987 78 7184ft 90kts
13-Dec-20 11:59 33.931156 -117.512293 201 7989ft 79kts
13-Dec-20 12:00 33.918400 -117.529771 254 8636ft 64kts
13-Dec-20 12:01 33.936109 -117.520555 42 9004ft 119kts
13-Dec-20 12:02 33.961281 -117.502379 18 8964ft 101kts
13-Dec-20 12:03 33.982295 -117.490058 19 9028ft 91kts
13-Dec-20 12:04 34.002963 -117.477244 20 8998ft 97kts
13-Dec-20 12:05 34.026468 -117.463735 19 8997ft 96kts
13-Dec-20 12:07 34.049741 -117.449397 18 9000ft 96kts
13-Dec-20 12:08 34.073981 -117.435183 17 9016ft 96kts
13-Dec-20 12:09 34.099622 -117.421419 17 9048ft 97kts
13-Dec-20 12:10 34.125823 -117.405323 19 9004ft 107kts
13-Dec-20 12:11 34.152119 -117.388587 19 9007ft 107kts
13-Dec-20 12:12 34.178652 -117.371810 17 8998ft 107kts
13-Dec-20 12:13 34.203183 -117.356746 16 9345ft 83kts
13-Dec-20 12:14 34.221229 -117.344810 13 9744ft 67kts
13-Dec-20 12:15 34.237254 -117.335512 12 10030ft 63kts
13-Dec-20 12:16 34.253113 -117.326755 5 10287ft 60kts
13-Dec-20 12:17 34.268551 -117.318409 9 10532ft 60kts
13-Dec-20 12:18 34.283832 -117.308675 11 10743ft 63kts
13-Dec-20 12:19 34.299105 -117.298023 14 10981ft 61kts
13-Dec-20 12:20 34.316116 -117.288062 10 11074ft 78kts
13-Dec-20 12:21 34.340201 -117.275621 14 11000ft 102kts
13-Dec-20 12:21 34.362024 -117.262570 16 10979ft 108kts
13-Dec-20 12:23 34.394578 -117.242664 19 10382ft 113kts
13-Dec-20 12:23 34.417824 -117.228367 17 10017ft 106kts
13-Dec-20 12:25 34.449097 -117.211637 11 9813ft 108kts
13-Dec-20 12:26 34.469042 -117.200818 28 9314ft 112kts
13-Dec-20 12:26 34.475969 -117.194306 31 9130ft 112kts
13-Dec-20 12:27 34.502300 -117.176009 20 8353ft 110kts
13-Dec-20 12:28 34.526992 -117.161109 19 8023ft 91kts
13-Dec-20 12:29 34.549909 -117.147756 8 7913ft 92kts
13-Dec-20 12:30 34.577460 -117.144029 1 7472ft 106kts
13-Dec-20 12:31 34.607665 -117.143633 347 6963ft 109kts
13-Dec-20 12:32 34.637495 -117.149594 348 6655ft 102kts
13-Dec-20 12:33 34.665093 -117.158370 336 6662ft 98kts
13-Dec-20 12:34 34.689835 -117.174402 331 6622ft 102kts
13-Dec-20 12:35 34.713069 -117.194044 321 6661ft 97kts
13-Dec-20 12:36 34.735473 -117.213846 321 6653ft 100kts
13-Dec-20 12:37 34.754204 -117.239621 306 6644ft 101kts
13-Dec-20 12:38 34.770440 -117.267520 303 6655ft 102kts
13-Dec-20 12:39 34.783016 -117.299033 297 6302ft 102kts
13-Dec-20 12:40 34.792669 -117.330867 291 5690ft 100kts
13-Dec-20 12:41 34.798403 -117.364282 277 5188ft 98kts
13-Dec-20 12:42 34.774472 -117.376827 187 4702ft 113kts
13-Dec-20 12:43 34.743817 -117.379890 189 4367ft 103kts
13-Dec-20 12:44 34.715469 -117.381987 180 4370ft 100kts
13-Dec-20 12:45 34.687024 -117.383434 182 4177ft 108kts
13-Dec-20 12:46 34.657275 -117.385079 183 3642ft 103kts
13-Dec-20 12:47 34.629233 -117.386552 182 3249ft 96kts
13-Dec-20 12:48 34.608314 -117.392720 294 3870ft 71kts
13-Dec-20 12:49 34.625894 -117.411230 320 4504ft 87kts
13-Dec-20 12:50 34.636721 -117.436003 323 5220ft 85kts
13-Dec-20 12:51 34.641439 -117.461948 262 5900ft 88kts
13-Dec-20 12:52 34.641984 -117.495905 278 6045ft 106kts
13-Dec-20 12:53 34.646455 -117.530966 285 5762ft 109kts
13-Dec-20 12:54 34.641680 -117.565472 203 5282ft 119kts
13-Dec-20 12:55 34.624371 -117.542509 94 4720ft 120kts
13-Dec-20 12:56 34.611745 -117.505357 131 4088ft 123kts
13-Dec-20 12:57 34.586709 -117.482482 153 3931ft 102kts
13-Dec-20 12:58 34.577057 -117.454604 74 3953ft 107kts
13-Dec-20 12:59 34.593272 -117.424555 33 3927ft 111kts
13-Dec-20 13:00 34.622453 -117.415176 3 3905ft 106kts
13-Dec-20 13:01 34.635476 -117.401329 95 3410ft 71kts
13-Dec-20 13:02 34.624929 -117.386721 181 2946ft 68kts
13-Dec-20 13:03 34.616037 -117.385968 93 2820ft 5kts
13-Dec-20 13:04 34.616031 -117.385563 91 2820ft 0kts
13-Dec-20 13:05 34.616030 -117.385448 89 2820ft 0kts

Navigation Log

Ident Type
Flight plan parsing failed, navigation log unavailable